首页
METAR-TAF:

METAR-TAF

机场 :

布巴内什瓦尔, 印度

纬度: 20-14-40N, 经度: 85-49-04E, 海拔: 45米

当前天气观测

该预报发布于1小时和23分钟前的21:30 UTC
风速2节,风向
温度 28°C
湿度 89%
气压 1002 hPa
能見度: 4000
少量云层高于1800英尺
散云层高于10000英尺
霾,

METAR: VEBS 222130Z 19002KT 4000 HZ FEW018 SCT100 28/26 Q1002 NOSIG

时间: 04:23 (22:53 UTC)

预报

该预报发布于2小时和53分钟前的20:00 UTC
预报有效从22日的 21点(UTC)到 23日的 06点(UTC)
风速4节,风向
能見度: 4000
少量云层高于2000英尺
散云层高于10000英尺
成为
从 23日的 04点(UTC)到 23日的 06点(UTC)
能見度: 3500
小雨, 霾,

TAF: VEBS 222000Z 2221/2306 18004KT 4000 HZ FEW020 SCT100 BECMG 2304/2306 3500 -RA HZ

超过4000个机场的气象观测和天气预报(METAR&TAF报告)。

可查询的气象台以黄色和红色小点在地图上表示。

将鼠标移到小点上方,可查看气象台名称。

然后点击查看天气观测和预报。

如需切换地图:点击带黑十字的绿色按钮放大地图;点击带横线的绿色按钮缩小地图;或者点击绿色箭头查看邻近地区的地图。


METAR-TAF: